Time;durP1;ratioP1;P1;durP2;ratioP2;P2;SDS_P1;SDS_P2;PMS_P1;PMS_P2;Temp;Humidity;BMP_temperature;BMP_pressure;BME280_temperature;BME280_humidity;BME280_pressure;Samples;Min_cycle;Max_cycle;Signal;HPM_P1;HPM_P2
2022/01/23 00:04:33;;;;;;;23.27;12.13;;;;;;;;;;4452671;32;20100;-71
2022/01/23 00:07:03;;;;;;;;;;;;;;;;;;4451990;32;20021;-71
2022/01/23 00:09:28;;;;;;;18.33;11.20;;;;;;;;;;4451361;32;20242;-70
2022/01/23 00:11:54;;;;;;;;;;;;;;;;;;4453273;32;20060;-71
2022/01/23 00:17:23;;;;;;;17.10;10.65;;;;;;;;;;4464060;32;20056;-71
2022/01/23 00:19:49;;;;;;;18.87;10.82;;;;;;;;;;4467653;32;20350;-69
2022/01/23 00:22:15;;;;;;;17.37;10.40;;;;;;;;;;4452471;32;20048;-69
2022/01/23 00:30:29;;;;;;;15.77;9.93;;;;;;;;;;4452686;32;20109;-71
2022/01/23 00:32:56;;;;;;;14.38;10.10;;;;;;;;;;4452819;32;20022;-71
2022/01/23 00:35:21;;;;;;;19.85;11.23;;;;;;;;;;4452596;32;20055;-70
2022/01/23 00:37:46;;;;;;;;;;;;;;;;;;4451863;32;20408;-70
2022/01/23 00:40:12;;;;;;;16.20;12.02;;;;;;;;;;4436971;32;19944;-70
2022/01/23 00:42:37;;;;;;;17.10;11.30;;;;;;;;;;4440952;32;20469;-70
2022/01/23 00:45:24;;;;;;;;;;;;;;;;;;4467810;32;20029;-70
2022/01/23 00:47:49;;;;;;;15.95;10.77;;;;;;;;;;4468510;32;19951;-70
2022/01/23 00:50:15;;;;;;;20.50;13.62;;;;;;;;;;4466021;32;20105;-69
2022/01/23 00:52:40;;;;;;;;;;;;;;;;;;4467021;32;20360;-70
2022/01/23 00:55:05;;;;;;;23.73;12.13;;;;;;;;;;4453799;32;19936;-69
2022/01/23 00:57:31;;;;;;;;;;;;;;;;;;4466048;32;20037;-69
2022/01/23 00:59:56;;;;;;;20.65;11.55;;;;;;;;;;4466925;32;20282;-71
2022/01/23 01:02:21;;;;;;;;;;;;;;;;;;4468157;32;20115;-71
2022/01/23 01:04:46;;;;;;;18.62;12.82;;;;;;;;;;4466871;32;20393;-71
2022/01/23 01:07:11;;;;;;;24.58;13.27;;;;;;;;;;4466530;32;20025;-71
2022/01/23 01:09:36;;;;;;;;;;;;;;;;;;4467234;32;20088;-70
2022/01/23 01:12:05;;;;;;;19.87;13.62;;;;;;;;;;4466120;32;19968;-70
2022/01/23 01:17:38;;;;;;;24.27;13.82;;;;;;;;;;4437354;32;20059;-70
2022/01/23 01:34:01;;;;;;;23.83;14.90;;;;;;;;;;4453642;32;20047;-70
2022/01/23 01:36:35;;;;;;;22.33;12.52;;;;;;;;;;4453699;32;20106;-70
2022/01/23 01:39:00;;;;;;;22.25;15.40;;;;;;;;;;4440398;32;20361;-70
2022/01/23 01:41:26;;;;;;;;;;;;;;;;;;4453461;32;20079;-70
2022/01/23 01:43:51;;;;;;;25.83;14.65;;;;;;;;;;4453402;32;19932;-70
2022/01/23 01:46:16;;;;;;;;;;;;;;;;;;4440405;32;20057;-70
2022/01/23 01:48:42;;;;;;;25.12;15.27;;;;;;;;;;4452573;32;19940;-70
2022/01/23 01:51:12;;;;;;;;;;;;;;;;;;4454835;32;20025;-71
2022/01/23 01:53:37;;;;;;;31.02;16.30;;;;;;;;;;4468462;32;19948;-69
2022/01/23 01:56:05;;;;;;;;;;;;;;;;;;4469985;32;20349;-70
2022/01/23 01:58:57;;;;;;;26.50;17.02;;;;;;;;;;4469189;32;19936;-70
2022/01/23 02:09:16;;;;;;;27.52;15.98;;;;;;;;;;4468816;32;20512;-70
2022/01/23 02:25:30;;;;;;;24.12;16.65;;;;;;;;;;4453811;32;20086;-70
2022/01/23 02:53:16;;;;;;;28.85;18.55;;;;;;;;;;4467535;32;20051;-70
2022/01/23 02:55:34;;;;;;;32.75;17.10;;;;;;;;;;4460889;32;20053;-71
2022/01/23 02:58:03;;;;;;;22.95;16.37;;;;;;;;;;4467306;32;20039;-70
2022/01/23 03:00:35;;;;;;;28.65;17.70;;;;;;;;;;4454785;32;20379;-70
2022/01/23 03:03:10;;;;;;;24.65;15.77;;;;;;;;;;4456566;32;20021;-70
2022/01/23 03:05:37;;;;;;;26.98;15.98;;;;;;;;;;4451972;32;20044;-70
2022/01/23 03:10:40;;;;;;;;;;;;;;;;;;4452246;32;20073;-70
2022/01/23 03:15:56;;;;;;;32.10;16.87;;;;;;;;;;4453670;32;20080;-70
2022/01/23 03:26:48;;;;;;;32.58;17.65;;;;;;;;;;4453682;32;20063;-69
2022/01/23 03:29:20;;;;;;;32.97;18.80;;;;;;;;;;4453755;32;20055;-70
2022/01/23 03:34:17;;;;;;;26.77;18.00;;;;;;;;;;4461749;32;20419;-69
2022/01/23 03:36:42;;;;;;;;;;;;;;;;;;4452371;32;20037;-70
2022/01/23 03:39:08;;;;;;;26.98;18.00;;;;;;;;;;4452116;32;19932;-70
2022/01/23 03:41:33;;;;;;;;;;;;;;;;;;4451607;32;20059;-70
2022/01/23 03:44:00;;;;;;;36.53;19.62;;;;;;;;;;4437058;32;19969;-71
2022/01/23 03:51:53;;;;;;;30.65;19.27;;;;;;;;;;4451463;32;20044;-70
2022/01/23 03:54:18;;;;;;;;;;;;;;;;;;4437658;32;20092;-70
2022/01/23 03:56:44;;;;;;;28.52;17.52;;;;;;;;;;4437188;32;20299;-70
2022/01/23 03:59:09;;;;;;;;;;;;;;;;;;4455436;32;20112;-69
2022/01/23 04:01:34;;;;;;;30.34;18.80;;;;;;;;;;4468572;32;20278;-69
2022/01/23 04:04:03;;;;;;;;;;;;;;;;;;4467277;32;20016;-70
2022/01/23 04:06:28;;;;;;;30.37;18.23;;;;;;;;;;4454047;32;19962;-69
2022/01/23 04:08:54;;;;;;;;;;;;;;;;;;4453653;32;20413;-71
2022/01/23 04:11:19;;;;;;;32.35;18.90;;;;;;;;;;4452446;32;19936;-69
2022/01/23 04:13:54;;;;;;;;;;;;;;;;;;4465624;32;20067;-69
2022/01/23 04:32:20;;;;;;;32.25;19.98;;;;;;;;;;4451525;32;20479;-71
2022/01/23 04:45:32;;;;;;;35.70;20.37;;;;;;;;;;4466302;32;20133;-71
2022/01/23 04:48:52;;;;;;;35.10;20.62;;;;;;;;;;4452066;32;20376;-70
2022/01/23 04:59:36;;;;;;;;;;;;;;;;;;4427768;32;20066;-70
2022/01/23 05:02:27;;;;;;;36.50;21.70;;;;;;;;;;4454678;32;19944;-69
2022/01/23 05:04:50;;;;;;;37.97;22.87;;;;;;;;;;4454035;32;20013;-69
2022/01/23 05:07:17;;;;;;;38.53;22.98;;;;;;;;;;4454662;32;20404;-69
2022/01/23 05:09:42;;;;;;;31.37;20.10;;;;;;;;;;4454004;32;20024;-69
2022/01/23 05:12:07;;;;;;;;;;;;;;;;;;4457677;32;20110;-69
2022/01/23 05:14:37;;;;;;;34.92;22.35;;;;;;;;;;4455046;32;19969;-70
2022/01/23 05:17:03;;;;;;;34.97;20.62;;;;;;;;;;4470208;32;20028;-70
2022/01/23 05:19:28;;;;;;;;;;;;;;;;;;4470230;32;20111;-69
2022/01/23 05:24:23;;;;;;;;;;;;;;;;;;4453763;32;20020;-70
2022/01/23 05:26:48;;;;;;;41.30;23.58;;;;;;;;;;4455352;32;19932;-69
2022/01/23 05:29:13;;;;;;;;;;;;;;;;;;4454122;32;20090;-70
2022/01/23 05:31:39;;;;;;;43.78;22.65;;;;;;;;;;4454515;32;19944;-70
2022/01/23 05:34:04;;;;;;;;;;;;;;;;;;4453748;32;20423;-69
2022/01/23 05:36:29;;;;;;;41.85;22.90;;;;;;;;;;4453154;32;19936;-70
2022/01/23 05:38:55;;;;;;;;;;;;;;;;;;4441348;32;20049;-69
2022/01/23 05:41:20;;;;;;;31.80;22.00;;;;;;;;;;4454993;32;20280;-69
2022/01/23 05:43:45;;;;;;;;;;;;;;;;;;4467958;32;20095;-70
2022/01/23 05:46:10;;;;;;;40.42;21.80;;;;;;;;;;4469557;32;19946;-69
2022/01/23 05:48:35;;;;;;;;;;;;;;;;;;4468856;32;20461;-69
2022/01/23 05:51:00;;;;;;;39.38;21.20;;;;;;;;;;4468756;32;19958;-69
2022/01/23 05:53:26;;;;;;;42.23;23.67;;;;;;;;;;4454878;32;20155;-68
2022/01/23 05:55:51;;;;;;;;;;;;;;;;;;4464812;32;20143;-70
2022/01/23 05:58:16;;;;;;;40.03;23.00;;;;;;;;;;4453910;32;19936;-69
2022/01/23 06:00:41;;;;;;;;;;;;;;;;;;4439983;32;20355;-70
2022/01/23 06:03:06;;;;;;;35.65;21.75;;;;;;;;;;4454962;32;19967;-69
2022/01/23 06:05:31;;;;;;;;;;;;;;;;;;4454348;32;20070;-70
2022/01/23 06:07:56;;;;;;;48.42;25.85;;;;;;;;;;4440029;32;19956;-70
2022/01/23 06:10:24;;;;;;;;;;;;;;;;;;4438766;32;20021;-70
2022/01/23 06:12:49;;;;;;;;;;;;;;;;;;4455054;32;19940;-69
2022/01/23 06:15:15;;;;;;;35.33;20.85;;;;;;;;;;4453145;32;19976;-70
2022/01/23 06:17:40;;;;;;;;;;;;;;;;;;4454750;32;20565;-70
2022/01/23 06:20:08;;;;;;;40.70;24.00;;;;;;;;;;4440424;32;19954;-70
2022/01/23 06:22:33;;;;;;;42.67;22.45;;;;;;;;;;4454047;32;20037;-69
2022/01/23 06:24:58;;;;;;;;;;;;;;;;;;4453099;32;20074;-69
2022/01/23 06:27:23;;;;;;;36.63;22.42;;;;;;;;;;4439317;32;19998;-71
2022/01/23 06:29:48;;;;;;;;;;;;;;;;;;4455369;32;20176;-69
2022/01/23 06:32:14;;;;;;;45.50;24.42;;;;;;;;;;4468764;32;19965;-69
2022/01/23 06:34:39;;;;;;;;;;;;;;;;;;4470188;32;20480;-69
2022/01/23 06:37:04;;;;;;;45.12;23.40;;;;;;;;;;4467935;32;20343;-69
2022/01/23 06:39:29;;;;;;;;;;;;;;;;;;4453923;32;20361;-70
2022/01/23 06:41:55;;;;;;;44.10;23.83;;;;;;;;;;4468333;32;19969;-70
2022/01/23 06:44:21;;;;;;;;;;;;;;;;;;4468812;32;20036;-70
2022/01/23 06:46:46;;;;;;;58.25;26.77;;;;;;;;;;4469354;32;20009;-70
2022/01/23 06:49:12;;;;;;;;;;;;;;;;;;4468120;32;20029;-70
2022/01/23 06:51:37;;;;;;;57.10;31.62;;;;;;;;;;4453844;32;19972;-69
2022/01/23 06:54:02;;;;;;;;;;;;;;;;;;4453944;32;20151;-69
2022/01/23 06:56:27;;;;;;;53.10;32.17;;;;;;;;;;4453232;32;19963;-70
2022/01/23 06:58:54;;;;;;;;;;;;;;;;;;4453606;32;20020;-70
2022/01/23 07:01:19;;;;;;;42.95;25.12;;;;;;;;;;4453102;32;19937;-69
2022/01/23 07:03:44;;;;;;;;;;;;;;;;;;4461966;32;20088;-68
2022/01/23 07:06:09;;;;;;;49.28;25.85;;;;;;;;;;4469138;32;19932;-68
2022/01/23 07:08:34;;;;;;;;;;;;;;;;;;4454689;32;20021;-69
2022/01/23 07:10:59;;;;;;;47.25;26.20;;;;;;;;;;4468690;32;19941;-68
2022/01/23 07:13:25;;;;;;;;;;;;;;;;;;4467285;32;20195;-68
2022/01/23 07:15:50;;;;;;;44.72;26.95;;;;;;;;;;4467159;32;19936;-68
2022/01/23 07:18:18;;;;;;;;;;;;;;;;;;4467421;32;20074;-69
2022/01/23 07:20:47;;;;;;;48.75;29.00;;;;;;;;;;4454492;32;19952;-69
2022/01/23 07:23:12;;;;;;;52.85;28.98;;;;;;;;;;4453411;32;20357;-68
2022/01/23 07:25:38;;;;;;;;;;;;;;;;;;4453119;32;20120;-68
2022/01/23 07:28:05;;;;;;;51.13;28.65;;;;;;;;;;4453540;32;19940;-69
2022/01/23 07:30:38;;;;;;;50.67;28.48;;;;;;;;;;4465867;32;20051;-68
2022/01/23 07:33:04;;;;;;;53.55;28.85;;;;;;;;;;4453491;32;20362;-68
2022/01/23 07:35:29;;;;;;;;;;;;;;;;;;4452509;32;20066;-69
2022/01/23 07:37:57;;;;;;;57.55;27.92;;;;;;;;;;4451814;32;19955;-69
2022/01/23 07:40:22;;;;;;;56.00;30.83;;;;;;;;;;4438598;32;20017;-68
2022/01/23 07:42:47;;;;;;;;;;;;;;;;;;4438000;32;20020;-69
2022/01/23 07:45:13;;;;;;;47.33;27.85;;;;;;;;;;4452905;32;19933;-70
2022/01/23 07:47:38;;;;;;;;;;;;;;;;;;4451495;32;20030;-69
2022/01/23 07:50:06;;;;;;;50.58;29.98;;;;;;;;;;4452895;32;20037;-68
2022/01/23 07:52:34;;;;;;;59.05;30.60;;;;;;;;;;4452206;32;20029;-69
2022/01/23 07:54:59;;;;;;;52.42;28.08;;;;;;;;;;4451639;32;20034;-69
2022/01/23 07:57:25;;;;;;;51.32;28.36;;;;;;;;;;4453638;32;20036;-71
2022/01/23 07:59:50;;;;;;;;;;;;;;;;;;4449204;32;20056;-70
2022/01/23 08:02:15;;;;;;;53.53;28.25;;;;;;;;;;4459549;32;19956;-70
2022/01/23 08:04:40;;;;;;;;;;;;;;;;;;4450063;32;20080;-70
2022/01/23 08:07:11;;;;;;;51.08;29.20;;;;;;;;;;4466801;32;20347;-69
2022/01/23 08:09:36;;;;;;;55.03;28.17;;;;;;;;;;4453935;32;20112;-69
2022/01/23 08:12:01;;;;;;;;;;;;;;;;;;4466123;32;20056;-70
2022/01/23 08:14:26;;;;;;;53.03;28.52;;;;;;;;;;4467412;32;19987;-69
2022/01/23 08:16:51;;;;;;;;;;;;;;;;;;4439364;32;20459;-70
2022/01/23 08:19:16;;;;;;;43.42;26.02;;;;;;;;;;4459041;32;20329;-70
2022/01/23 08:21:42;;;;;;;;;;;;;;;;;;4453538;32;20048;-69
2022/01/23 08:24:07;;;;;;;45.20;25.75;;;;;;;;;;4442665;32;19967;-69
2022/01/23 08:26:32;;;;;;;;;;;;;;;;;;4456922;32;20470;-70
2022/01/23 08:28:58;;;;;;;53.95;28.30;;;;;;;;;;4444665;32;19993;-70
2022/01/23 08:31:23;;;;;;;;;;;;;;;;;;4460628;32;20143;-70
2022/01/23 08:33:48;;;;;;;49.22;27.87;;;;;;;;;;4459978;32;19954;-69
2022/01/23 08:36:13;;;;;;;;;;;;;;;;;;4457418;32;20086;-69
2022/01/23 08:38:39;;;;;;;46.03;26.30;;;;;;;;;;4447377;32;19937;-69
2022/01/23 08:43:48;;;;;;;47.62;26.65;;;;;;;;;;4462402;32;19937;-69
2022/01/23 08:46:13;;;;;;;45.30;28.23;;;;;;;;;;4455034;32;20078;-70
2022/01/23 08:48:40;;;;;;;;;;;;;;;;;;4451614;32;20081;-68
2022/01/23 08:51:05;;;;;;;45.03;25.65;;;;;;;;;;4446336;32;19980;-69
2022/01/23 08:53:30;;;;;;;;;;;;;;;;;;4451378;32;20084;-69
2022/01/23 08:55:56;;;;;;;43.13;24.83;;;;;;;;;;4450971;32;19940;-69
2022/01/23 08:58:21;;;;;;;;;;;;;;;;;;4458644;32;20025;-68
2022/01/23 09:00:47;;;;;;;41.05;24.17;;;;;;;;;;4456510;32;19944;-69
2022/01/23 09:03:12;;;;;;;;;;;;;;;;;;4460534;32;20080;-69
2022/01/23 09:05:37;;;;;;;42.22;24.95;;;;;;;;;;4466095;32;19954;-70
2022/01/23 09:08:03;;;;;;;;;;;;;;;;;;4456831;32;20120;-68
2022/01/23 09:10:39;;;;;;;43.22;26.10;;;;;;;;;;4452459;32;20297;-69
2022/01/23 09:13:08;;;;;;;43.33;25.23;;;;;;;;;;4436641;32;20047;-69
2022/01/23 09:15:34;;;;;;;40.50;23.33;;;;;;;;;;4436554;32;20026;-69
2022/01/23 09:17:59;;;;;;;;;;;;;;;;;;4437387;32;20089;-69
2022/01/23 09:20:25;;;;;;;42.62;26.08;;;;;;;;;;4436527;32;19936;-69
2022/01/23 09:22:50;;;;;;;;;;;;;;;;;;4452998;32;20116;-68
2022/01/23 09:25:15;;;;;;;44.33;23.85;;;;;;;;;;4436223;32;19969;-68
2022/01/23 09:27:40;;;;;;;;;;;;;;;;;;4436993;32;20056;-70
2022/01/23 09:30:16;;;;;;;38.67;24.98;;;;;;;;;;4456899;32;20317;-69
2022/01/23 09:32:43;;;;;;;38.92;24.73;;;;;;;;;;4453202;32;20321;-69
2022/01/23 09:35:08;;;;;;;38.03;23.85;;;;;;;;;;4453444;32;20017;-69
2022/01/23 09:37:33;;;;;;;;;;;;;;;;;;4465815;32;20071;-69
2022/01/23 09:40:00;;;;;;;38.10;21.87;;;;;;;;;;4452013;32;19940;-69
2022/01/23 09:42:34;;;;;;;43.87;25.55;;;;;;;;;;4454525;32;20341;-69
2022/01/23 09:45:00;;;;;;;44.63;25.52;;;;;;;;;;4456221;32;20096;-69
2022/01/23 09:47:26;;;;;;;39.88;24.33;;;;;;;;;;4468421;32;20021;-71
2022/01/23 09:49:51;;;;;;;;;;;;;;;;;;4455671;32;20423;-69
2022/01/23 09:52:17;;;;;;;44.47;24.90;;;;;;;;;;4452887;32;20235;-69
2022/01/23 09:54:45;;;;;;;42.35;24.98;;;;;;;;;;4459296;32;20084;-70
2022/01/23 09:57:11;;;;;;;41.13;24.05;;;;;;;;;;4470081;32;20029;-69
2022/01/23 09:59:36;;;;;;;;;;;;;;;;;;4454363;32;20070;-70
2022/01/23 10:02:03;;;;;;;39.44;24.76;;;;;;;;;;4469519;32;19944;-70
2022/01/23 10:04:29;;;;;;;40.83;25.23;;;;;;;;;;4467123;32;20048;-70
2022/01/23 10:06:54;;;;;;;;;;;;;;;;;;4470436;32;20107;-70
2022/01/23 10:09:27;;;;;;;41.22;25.27;;;;;;;;;;4468282;32;19936;-70
2022/01/23 10:11:52;;;;;;;37.67;23.70;;;;;;;;;;4460577;32;20139;-70
2022/01/23 10:14:20;;;;;;;;;;;;;;;;;;4452114;32;20089;-68
2022/01/23 10:16:45;;;;;;;;;;;;;;;;;;4453395;32;19936;-69
2022/01/23 10:19:11;;;;;;;51.22;26.35;;;;;;;;;;4453202;32;19947;-69
2022/01/23 10:21:36;;;;;;;;;;;;;;;;;;4451648;32;20143;-70
2022/01/23 10:24:01;;;;;;;36.08;23.15;;;;;;;;;;4451583;32;19948;-70
2022/01/23 10:26:26;;;;;;;;;;;;;;;;;;4454056;32;20079;-69
2022/01/23 10:29:09;;;;;;;34.67;22.75;;;;;;;;;;4452491;32;19937;-69
2022/01/23 10:31:54;;;;;;;37.45;22.85;;;;;;;;;;4454502;32;20029;-69
2022/01/23 10:34:38;;;;;;;35.80;22.77;;;;;;;;;;4455760;32;20028;-69
2022/01/23 10:37:04;;;;;;;40.05;24.40;;;;;;;;;;4457863;32;20037;-69
2022/01/23 10:39:29;;;;;;;;;;;;;;;;;;4468689;32;20400;-68
2022/01/23 10:42:23;;;;;;;36.83;22.90;;;;;;;;;;4454490;32;19937;-69
2022/01/23 10:47:45;;;;;;;33.42;21.83;;;;;;;;;;4466726;32;20044;-68
2022/01/23 10:50:10;;;;;;;39.60;23.02;;;;;;;;;;4451194;32;20050;-70
2022/01/23 10:52:35;;;;;;;;;;;;;;;;;;4469103;32;20345;-70
2022/01/23 10:55:01;;;;;;;37.95;24.30;;;;;;;;;;4469475;32;19973;-68
2022/01/23 10:57:37;;;;;;;43.35;26.58;;;;;;;;;;4469310;32;20045;-70
2022/01/23 11:00:05;;;;;;;40.63;25.13;;;;;;;;;;4467874;32;20063;-69
2022/01/23 11:02:30;;;;;;;38.10;24.27;;;;;;;;;;4469739;32;20195;-69
2022/01/23 11:04:56;;;;;;;;;;;;;;;;;;4464332;32;20066;-70
2022/01/23 11:07:21;;;;;;;46.13;26.37;;;;;;;;;;4451448;32;19945;-70
2022/01/23 11:09:46;;;;;;;;;;;;;;;;;;4440069;32;20155;-69
2022/01/23 11:12:41;;;;;;;43.62;25.82;;;;;;;;;;4452393;32;20241;-69
2022/01/23 11:17:50;;;;;;;41.13;25.15;;;;;;;;;;4451610;32;20113;-69
2022/01/23 11:20:15;;;;;;;;;;;;;;;;;;4444477;32;20033;-69
2022/01/23 11:22:40;;;;;;;37.75;23.83;;;;;;;;;;4468834;32;19988;-69
2022/01/23 11:25:07;;;;;;;;;;;;;;;;;;4453835;32;20048;-70
2022/01/23 11:27:34;;;;;;;39.95;23.75;;;;;;;;;;4468775;32;20306;-69
2022/01/23 11:30:05;;;;;;;39.83;24.40;;;;;;;;;;4452602;32;20101;-69
2022/01/23 11:32:37;;;;;;;35.63;21.62;;;;;;;;;;4467894;32;20017;-70
2022/01/23 11:35:07;;;;;;;38.95;22.85;;;;;;;;;;4451527;32;20025;-69
2022/01/23 11:37:33;;;;;;;32.22;22.60;;;;;;;;;;4451332;32;20084;-69
2022/01/23 11:40:04;;;;;;;;;;;;;;;;;;4453366;32;20037;-70
2022/01/23 11:56:23;;;;;;;39.42;22.05;;;;;;;;;;4467907;32;20025;-69
2022/01/23 11:58:50;;;;;;;40.60;22.95;;;;;;;;;;4467053;32;20021;-69
2022/01/23 12:01:19;;;;;;;38.28;22.83;;;;;;;;;;4452558;32;20021;-69
2022/01/23 12:04:21;;;;;;;33.83;21.73;;;;;;;;;;4445690;32;20055;-68
2022/01/23 12:07:05;;;;;;;37.72;23.85;;;;;;;;;;4452754;32;20370;-69
2022/01/23 12:09:31;;;;;;;35.28;21.75;;;;;;;;;;4451087;32;20029;-69
2022/01/23 12:11:56;;;;;;;;;;;;;;;;;;4452802;32;20017;-70
2022/01/23 12:16:47;;;;;;;;;;;;;;;;;;4451182;32;20370;-69
2022/01/23 12:19:20;;;;;;;37.45;21.45;;;;;;;;;;4450767;32;19932;-70
2022/01/23 12:21:46;;;;;;;36.85;22.27;;;;;;;;;;4451029;32;20052;-68
2022/01/23 12:24:12;;;;;;;;;;;;;;;;;;4452738;32;20021;-69
2022/01/23 12:26:38;;;;;;;26.92;18.62;;;;;;;;;;4452306;32;19982;-70
2022/01/23 12:29:03;;;;;;;;;;;;;;;;;;4451231;32;20025;-70
2022/01/23 12:31:28;;;;;;;28.92;19.23;;;;;;;;;;4456335;32;19975;-69
2022/01/23 12:33:53;;;;;;;;;;;;;;;;;;4466458;32;20186;-70
2022/01/23 12:36:23;;;;;;;29.33;19.00;;;;;;;;;;4467758;32;20309;-69
2022/01/23 12:38:58;;;;;;;27.35;17.10;;;;;;;;;;4452103;32;20385;-69
2022/01/23 12:41:26;;;;;;;26.90;17.35;;;;;;;;;;4451917;32;20025;-70
2022/01/23 12:43:55;;;;;;;27.10;17.75;;;;;;;;;;4456230;32;20064;-69
2022/01/23 12:46:28;;;;;;;26.73;16.65;;;;;;;;;;4450202;32;20090;-70
2022/01/23 12:48:54;;;;;;;30.27;17.37;;;;;;;;;;4452211;32;20144;-69
2022/01/23 12:51:19;;;;;;;;;;;;;;;;;;4452046;32;20447;-70
2022/01/23 12:53:47;;;;;;;20.98;14.75;;;;;;;;;;4438972;32;19933;-69
2022/01/23 12:56:14;;;;;;;29.75;16.60;;;;;;;;;;4451601;32;20029;-69
2022/01/23 12:58:39;;;;;;;23.55;16.52;;;;;;;;;;4451368;32;20025;-69
2022/01/23 13:01:04;;;;;;;;;;;;;;;;;;4465978;32;20101;-68
2022/01/23 13:03:30;;;;;;;26.92;16.30;;;;;;;;;;4466690;32;20317;-69
2022/01/23 13:05:55;;;;;;;;;;;;;;;;;;4468046;32;20145;-70
2022/01/23 13:08:26;;;;;;;21.70;14.57;;;;;;;;;;4467002;32;20004;-69
2022/01/23 13:11:09;;;;;;;24.17;16.95;;;;;;;;;;4467905;32;20088;-69
2022/01/23 13:13:49;;;;;;;26.15;15.95;;;;;;;;;;4451614;32;20035;-70
2022/01/23 13:16:31;;;;;;;27.35;17.10;;;;;;;;;;4469365;32;20017;-69
2022/01/23 13:28:36;;;;;;;27.70;19.45;;;;;;;;;;4432257;32;20048;-69
2022/01/23 13:30:45;;;;;;;32.95;19.92;;;;;;;;;;4464005;32;20082;-69
2022/01/23 13:33:19;;;;;;;34.97;20.60;;;;;;;;;;4464381;32;20456;-69
2022/01/23 13:35:50;;;;;;;35.88;20.37;;;;;;;;;;4465593;32;20085;-69
2022/01/23 13:38:15;;;;;;;27.73;20.17;;;;;;;;;;4466720;32;20045;-68
2022/01/23 13:40:42;;;;;;;;;;;;;;;;;;4470045;32;20377;-69
2022/01/23 13:51:27;;;;;;;30.42;20.25;;;;;;;;;;4454461;32;20397;-70
2022/01/23 14:04:22;;;;;;;26.90;19.48;;;;;;;;;;4460890;32;20025;-69
2022/01/23 14:06:48;;;;;;;27.25;18.67;;;;;;;;;;4454756;32;20136;-70
2022/01/23 14:09:13;;;;;;;;;;;;;;;;;;4452670;32;20048;-69
2022/01/23 14:11:39;;;;;;;27.40;19.30;;;;;;;;;;4452528;32;20330;-69
2022/01/23 14:14:12;;;;;;;22.83;18.52;;;;;;;;;;4452738;32;20084;-70
2022/01/23 14:16:37;;;;;;;33.28;21.45;;;;;;;;;;4452523;32;20064;-69
2022/01/23 14:19:02;;;;;;;;;;;;;;;;;;4452742;32;20365;-69
2022/01/23 14:21:38;;;;;;;46.80;23.10;;;;;;;;;;4452809;32;19972;-69
2022/01/23 14:24:04;;;;;;;32.47;24.33;;;;;;;;;;4452823;32;20051;-69
2022/01/23 14:26:29;;;;;;;;;;;;;;;;;;4437935;32;20048;-69
2022/01/23 14:28:54;;;;;;;25.60;19.55;;;;;;;;;;4452488;32;20339;-71
2022/01/23 14:31:22;;;;;;;;;;;;;;;;;;4440303;32;20088;-70
2022/01/23 14:33:52;;;;;;;;;;;;;;;;;;4463704;32;19933;-70
2022/01/23 14:36:19;;;;;;;27.70;21.25;;;;;;;;;;4458817;32;19932;-69
2022/01/23 14:39:04;;;;;;;27.50;21.20;;;;;;;;;;4457706;32;20065;-70
2022/01/23 14:41:31;;;;;;;28.15;20.65;;;;;;;;;;4449948;32;20037;-69
2022/01/23 14:43:57;;;;;;;25.95;20.00;;;;;;;;;;4455349;32;20119;-69
2022/01/23 14:46:22;;;;;;;;;;;;;;;;;;4464481;32;20033;-68
2022/01/23 14:48:49;;;;;;;27.80;19.85;;;;;;;;;;4451929;32;20310;-69
2022/01/23 14:51:18;;;;;;;32.50;19.35;;;;;;;;;;4451955;32;20425;-68
2022/01/23 14:53:44;;;;;;;25.17;18.98;;;;;;;;;;4453292;32;20078;-69
2022/01/23 14:56:10;;;;;;;;;;;;;;;;;;4452131;32;20026;-69
2022/01/23 14:58:36;;;;;;;25.17;18.58;;;;;;;;;;4452495;32;19995;-69
2022/01/23 15:01:03;;;;;;;26.58;20.37;;;;;;;;;;4456428;32;20059;-68
2022/01/23 15:03:31;;;;;;;37.10;22.33;;;;;;;;;;4468536;32;20056;-70
2022/01/23 15:05:57;;;;;;;30.75;22.92;;;;;;;;;;4467895;32;20369;-69
2022/01/23 15:08:24;;;;;;;;;;;;;;;;;;4468154;32;20080;-68
2022/01/23 15:10:50;;;;;;;36.85;22.40;;;;;;;;;;4467559;32;19946;-69
2022/01/23 15:13:16;;;;;;;29.02;20.08;;;;;;;;;;4467397;32;20075;-69
2022/01/23 15:15:41;;;;;;;;;;;;;;;;;;4463053;32;20029;-69
2022/01/23 15:18:08;;;;;;;31.87;23.73;;;;;;;;;;4457080;32;19946;-69
2022/01/23 15:20:35;;;;;;;36.28;24.80;;;;;;;;;;4450846;32;20025;-69
2022/01/23 15:23:00;;;;;;;35.95;23.77;;;;;;;;;;4454061;32;20051;-69
2022/01/23 15:25:25;;;;;;;;;;;;;;;;;;4462317;32;20033;-69
2022/01/23 15:27:51;;;;;;;36.30;23.38;;;;;;;;;;4461031;32;19940;-69
2022/01/23 15:30:16;;;;;;;;;;;;;;;;;;4467603;32;20119;-69
2022/01/23 15:32:42;;;;;;;39.15;25.65;;;;;;;;;;4468377;32;19940;-70
2022/01/23 15:35:08;;;;;;;37.17;26.90;;;;;;;;;;4466008;32;20108;-69
2022/01/23 15:37:33;;;;;;;;;;;;;;;;;;4457687;32;20053;-69
2022/01/23 15:39:58;;;;;;;41.12;26.08;;;;;;;;;;4452412;32;20348;-69
2022/01/23 15:42:23;;;;;;;;;;;;;;;;;;4453580;32;20025;-72
2022/01/23 15:44:50;;;;;;;38.35;25.65;;;;;;;;;;4451580;32;19975;-71
2022/01/23 15:47:15;;;;;;;37.97;26.40;;;;;;;;;;4452392;32;20051;-71
2022/01/23 15:49:40;;;;;;;;;;;;;;;;;;4451067;32;20021;-73
2022/01/23 15:52:05;;;;;;;42.90;25.65;;;;;;;;;;4450919;32;19984;-74
2022/01/23 15:54:31;;;;;;;;;;;;;;;;;;4450148;32;20181;-74
2022/01/23 15:56:57;;;;;;;38.65;27.73;;;;;;;;;;4451046;32;19993;-73
2022/01/23 15:59:22;;;;;;;;;;;;;;;;;;4450194;32;20082;-73
2022/01/23 16:01:49;;;;;;;37.88;26.45;;;;;;;;;;4451242;32;19936;-75
2022/01/23 16:04:15;;;;;;;42.35;27.30;;;;;;;;;;4437046;32;20043;-74
2022/01/23 16:06:40;;;;;;;;;;;;;;;;;;4457376;32;20044;-74
2022/01/23 16:09:05;;;;;;;41.00;26.85;;;;;;;;;;4465993;32;19962;-74
2022/01/23 16:11:30;;;;;;;;;;;;;;;;;;4467058;32;20120;-74
2022/01/23 16:13:56;;;;;;;39.65;25.85;;;;;;;;;;4466467;32;19952;-74
2022/01/23 16:16:21;;;;;;;;;;;;;;;;;;4467458;32;20349;-73
2022/01/23 16:18:46;;;;;;;38.38;26.55;;;;;;;;;;4467809;32;19936;-74
2022/01/23 16:21:11;;;;;;;;;;;;;;;;;;4452807;32;20138;-74
2022/01/23 16:23:37;;;;;;;47.22;27.67;;;;;;;;;;4466905;32;20309;-75
2022/01/23 16:26:02;;;;;;;;;;;;;;;;;;4453060;32;20069;-74
2022/01/23 16:28:27;;;;;;;44.58;27.62;;;;;;;;;;4451522;32;19936;-73
2022/01/23 16:30:52;;;;;;;;;;;;;;;;;;4454013;32;20024;-74
2022/01/23 16:33:18;;;;;;;41.30;26.12;;;;;;;;;;4466772;32;20396;-75
2022/01/23 16:35:43;;;;;;;;;;;;;;;;;;4451532;32;20081;-75
2022/01/23 16:38:11;;;;;;;40.95;26.17;;;;;;;;;;4436600;32;19980;-75
2022/01/23 16:40:36;;;;;;;42.62;28.90;;;;;;;;;;4452093;32;20187;-75
2022/01/23 16:43:01;;;;;;;;;;;;;;;;;;4462614;32;20051;-74
2022/01/23 16:45:27;;;;;;;51.92;27.60;;;;;;;;;;4452386;32;19940;-74
2022/01/23 16:47:52;;;;;;;;;;;;;;;;;;4452401;32;20020;-74
2022/01/23 16:50:18;;;;;;;45.05;28.65;;;;;;;;;;4467490;32;19983;-73
2022/01/23 16:52:43;;;;;;;;;;;;;;;;;;4466553;32;20029;-73
2022/01/23 16:55:08;;;;;;;45.88;28.65;;;;;;;;;;4465523;32;20031;-73
2022/01/23 16:57:33;;;;;;;;;;;;;;;;;;4452882;32;20146;-73
2022/01/23 16:59:59;;;;;;;49.85;31.98;;;;;;;;;;4453200;32;19936;-73
2022/01/23 17:02:24;;;;;;;;;;;;;;;;;;4452507;32;20448;-74
2022/01/23 17:04:49;;;;;;;47.47;28.42;;;;;;;;;;4453428;32;20332;-73
2022/01/23 17:07:14;;;;;;;;;;;;;;;;;;4452233;32;20025;-73
2022/01/23 17:09:39;;;;;;;46.22;30.00;;;;;;;;;;4450838;32;20270;-73
2022/01/23 17:12:04;;;;;;;;;;;;;;;;;;4452834;32;20551;-74
2022/01/23 17:14:30;;;;;;;47.75;29.05;;;;;;;;;;4452580;32;19983;-74
2022/01/23 17:16:55;;;;;;;;;;;;;;;;;;4466066;32;20047;-75
2022/01/23 17:19:20;;;;;;;51.03;31.83;;;;;;;;;;4453281;32;19954;-73
2022/01/23 17:21:45;;;;;;;;;;;;;;;;;;4465757;32;20021;-74
2022/01/23 17:24:10;;;;;;;53.25;32.53;;;;;;;;;;4451795;32;19987;-75
2022/01/23 17:26:35;;;;;;;;;;;;;;;;;;4450674;32;20112;-74
2022/01/23 17:29:00;;;;;;;53.17;31.15;;;;;;;;;;4452199;32;19996;-74
2022/01/23 17:31:25;;;;;;;47.53;31.40;;;;;;;;;;4447809;32;20048;-74
2022/01/23 17:33:51;;;;;;;;;;;;;;;;;;4462682;32;20022;-73
2022/01/23 17:36:16;;;;;;;50.14;30.46;;;;;;;;;;4450781;32;19933;-74
2022/01/23 17:38:41;;;;;;;;;;;;;;;;;;4451018;32;20071;-74
2022/01/23 17:41:07;;;;;;;50.47;29.80;;;;;;;;;;4451672;32;19936;-73
2022/01/23 17:43:32;;;;;;;;;;;;;;;;;;4451828;32;20451;-73
2022/01/23 17:45:59;;;;;;;54.88;31.25;;;;;;;;;;4451785;32;20302;-74
2022/01/23 17:48:46;;;;;;;52.40;31.92;;;;;;;;;;4467632;32;20025;-74
2022/01/23 17:51:15;;;;;;;51.88;32.25;;;;;;;;;;4456405;32;20017;-74
2022/01/23 17:53:41;;;;;;;53.87;33.05;;;;;;;;;;4436068;32;20022;-73
2022/01/23 17:56:06;;;;;;;;;;;;;;;;;;4450861;32;20441;-73
2022/01/23 17:58:31;;;;;;;56.03;34.70;;;;;;;;;;4464719;32;20317;-73
2022/01/23 18:00:56;;;;;;;;;;;;;;;;;;4466337;32;20055;-73
2022/01/23 18:03:22;;;;;;;58.38;33.80;;;;;;;;;;4453873;32;20306;-73
2022/01/23 18:05:47;;;;;;;;;;;;;;;;;;4460929;32;20088;-73
2022/01/23 18:08:12;;;;;;;59.74;33.26;;;;;;;;;;4452160;32;19940;-73
2022/01/23 18:10:37;;;;;;;;;;;;;;;;;;4454788;32;20053;-73
2022/01/23 18:13:05;;;;;;;56.22;34.65;;;;;;;;;;4452795;32;19933;-74